sensor_id;sensor_type;location;lat;lon;timestamp;temperature;humidity
84902;DHT22;75166;51.198;6.010;2024-03-08T00:00:41;8.90;59.00
84902;DHT22;75166;51.198;6.010;2024-03-08T00:03:08;8.90;59.00
84902;DHT22;75166;51.198;6.010;2024-03-08T00:05:36;8.90;59.00
84902;DHT22;75166;51.198;6.010;2024-03-08T00:08:04;8.80;59.00
84902;DHT22;75166;51.198;6.010;2024-03-08T00:10:30;8.80;58.90
84902;DHT22;75166;51.198;6.010;2024-03-08T00:12:56;8.80;58.70
84902;DHT22;75166;51.198;6.010;2024-03-08T00:15:23;8.80;58.70
84902;DHT22;75166;51.198;6.010;2024-03-08T00:17:49;8.80;58.80
84902;DHT22;75166;51.198;6.010;2024-03-08T00:20:15;8.70;58.70
84902;DHT22;75166;51.198;6.010;2024-03-08T00:22:43;8.70;58.70
84902;DHT22;75166;51.198;6.010;2024-03-08T00:25:09;8.70;58.70
84902;DHT22;75166;51.198;6.010;2024-03-08T00:27:36;8.70;58.80
84902;DHT22;75166;51.198;6.010;2024-03-08T00:30:02;8.60;58.80
84902;DHT22;75166;51.198;6.010;2024-03-08T00:32:28;8.70;58.80
84902;DHT22;75166;51.198;6.010;2024-03-08T00:34:54;8.60;58.70
84902;DHT22;75166;51.198;6.010;2024-03-08T00:37:23;8.60;58.60
84902;DHT22;75166;51.198;6.010;2024-03-08T00:39:49;8.60;58.70
84902;DHT22;75166;51.198;6.010;2024-03-08T00:42:15;8.60;58.80
84902;DHT22;75166;51.198;6.010;2024-03-08T00:44:41;8.50;58.70
84902;DHT22;75166;51.198;6.010;2024-03-08T00:47:07;8.50;58.70
84902;DHT22;75166;51.198;6.010;2024-03-08T00:49:32;8.50;58.70
84902;DHT22;75166;51.198;6.010;2024-03-08T00:51:58;8.50;58.80
84902;DHT22;75166;51.198;6.010;2024-03-08T00:54:24;8.50;58.80
84902;DHT22;75166;51.198;6.010;2024-03-08T00:56:49;8.50;58.70
84902;DHT22;75166;51.198;6.010;2024-03-08T00:59:15;8.50;58.70
84902;DHT22;75166;51.198;6.010;2024-03-08T01:01:41;8.40;58.60
84902;DHT22;75166;51.198;6.010;2024-03-08T01:04:06;8.40;58.70
84902;DHT22;75166;51.198;6.010;2024-03-08T01:06:33;8.40;58.80
84902;DHT22;75166;51.198;6.010;2024-03-08T01:08:59;8.40;58.70
84902;DHT22;75166;51.198;6.010;2024-03-08T01:11:25;8.40;58.70
84902;DHT22;75166;51.198;6.010;2024-03-08T01:13:50;8.40;58.90
84902;DHT22;75166;51.198;6.010;2024-03-08T01:16:16;8.40;58.70
84902;DHT22;75166;51.198;6.010;2024-03-08T01:18:43;8.30;58.70
84902;DHT22;75166;51.198;6.010;2024-03-08T01:21:09;8.30;58.60
84902;DHT22;75166;51.198;6.010;2024-03-08T01:23:34;8.30;58.80
84902;DHT22;75166;51.198;6.010;2024-03-08T01:26:00;8.30;58.70
84902;DHT22;75166;51.198;6.010;2024-03-08T01:28:27;8.30;58.80
84902;DHT22;75166;51.198;6.010;2024-03-08T01:30:53;8.30;58.80
84902;DHT22;75166;51.198;6.010;2024-03-08T01:33:24;8.20;58.70
84902;DHT22;75166;51.198;6.010;2024-03-08T01:35:53;8.20;58.80
84902;DHT22;75166;51.198;6.010;2024-03-08T01:38:19;8.20;58.90
84902;DHT22;75166;51.198;6.010;2024-03-08T01:40:49;8.20;58.80
84902;DHT22;75166;51.198;6.010;2024-03-08T01:45:43;8.20;58.90
84902;DHT22;75166;51.198;6.010;2024-03-08T01:48:08;8.10;58.90
84902;DHT22;75166;51.198;6.010;2024-03-08T01:50:35;8.10;58.90
84902;DHT22;75166;51.198;6.010;2024-03-08T01:53:02;8.10;58.70
84902;DHT22;75166;51.198;6.010;2024-03-08T01:55:28;8.10;58.90
84902;DHT22;75166;51.198;6.010;2024-03-08T01:57:54;8.10;58.90
84902;DHT22;75166;51.198;6.010;2024-03-08T02:00:21;8.10;58.90
84902;DHT22;75166;51.198;6.010;2024-03-08T02:02:47;8.10;58.90
84902;DHT22;75166;51.198;6.010;2024-03-08T02:05:15;8.00;58.90
84902;DHT22;75166;51.198;6.010;2024-03-08T02:07:41;8.00;58.90
84902;DHT22;75166;51.198;6.010;2024-03-08T02:10:10;8.00;58.90
84902;DHT22;75166;51.198;6.010;2024-03-08T02:12:38;8.00;58.90
84902;DHT22;75166;51.198;6.010;2024-03-08T02:15:04;8.00;58.90
84902;DHT22;75166;51.198;6.010;2024-03-08T02:17:32;8.00;58.90
84902;DHT22;75166;51.198;6.010;2024-03-08T02:19:59;8.00;59.00
84902;DHT22;75166;51.198;6.010;2024-03-08T02:22:30;7.90;59.00
84902;DHT22;75166;51.198;6.010;2024-03-08T02:24:58;7.90;58.90
84902;DHT22;75166;51.198;6.010;2024-03-08T02:27:27;7.90;59.00
84902;DHT22;75166;51.198;6.010;2024-03-08T02:29:56;7.90;59.00
84902;DHT22;75166;51.198;6.010;2024-03-08T02:32:25;7.90;59.10
84902;DHT22;75166;51.198;6.010;2024-03-08T02:34:51;7.90;59.00
84902;DHT22;75166;51.198;6.010;2024-03-08T02:37:21;7.90;59.00
84902;DHT22;75166;51.198;6.010;2024-03-08T02:39:46;7.80;58.90
84902;DHT22;75166;51.198;6.010;2024-03-08T02:42:12;7.80;59.10
84902;DHT22;75166;51.198;6.010;2024-03-08T02:44:42;7.80;59.10
84902;DHT22;75166;51.198;6.010;2024-03-08T02:47:09;7.80;59.00
84902;DHT22;75166;51.198;6.010;2024-03-08T02:49:35;7.70;59.00
84902;DHT22;75166;51.198;6.010;2024-03-08T02:52:02;7.70;59.00
84902;DHT22;75166;51.198;6.010;2024-03-08T02:54:28;7.70;59.00
84902;DHT22;75166;51.198;6.010;2024-03-08T02:56:53;7.70;58.90
84902;DHT22;75166;51.198;6.010;2024-03-08T02:59:19;7.70;58.90
84902;DHT22;75166;51.198;6.010;2024-03-08T03:01:45;7.70;59.00
84902;DHT22;75166;51.198;6.010;2024-03-08T03:04:11;7.70;59.10
84902;DHT22;75166;51.198;6.010;2024-03-08T03:06:36;7.70;59.30
84902;DHT22;75166;51.198;6.010;2024-03-08T03:09:02;7.60;59.20
84902;DHT22;75166;51.198;6.010;2024-03-08T03:11:28;7.60;59.80
84902;DHT22;75166;51.198;6.010;2024-03-08T03:13:54;7.60;59.20
84902;DHT22;75166;51.198;6.010;2024-03-08T03:16:21;7.60;59.90
84902;DHT22;75166;51.198;6.010;2024-03-08T03:18:47;7.60;59.90
84902;DHT22;75166;51.198;6.010;2024-03-08T03:21:13;7.60;59.20
84902;DHT22;75166;51.198;6.010;2024-03-08T03:23:39;7.60;59.20
84902;DHT22;75166;51.198;6.010;2024-03-08T03:26:06;7.60;59.30
84902;DHT22;75166;51.198;6.010;2024-03-08T03:28:34;7.50;59.40
84902;DHT22;75166;51.198;6.010;2024-03-08T03:30:59;7.50;59.40
84902;DHT22;75166;51.198;6.010;2024-03-08T03:33:26;7.50;59.40
84902;DHT22;75166;51.198;6.010;2024-03-08T03:35:52;7.50;59.40
84902;DHT22;75166;51.198;6.010;2024-03-08T03:38:18;7.50;59.40
84902;DHT22;75166;51.198;6.010;2024-03-08T03:40:45;7.50;59.30
84902;DHT22;75166;51.198;6.010;2024-03-08T03:43:11;7.50;59.20
84902;DHT22;75166;51.198;6.010;2024-03-08T03:45:38;7.50;59.30
84902;DHT22;75166;51.198;6.010;2024-03-08T03:48:05;7.40;59.30
84902;DHT22;75166;51.198;6.010;2024-03-08T03:50:35;7.40;59.50
84902;DHT22;75166;51.198;6.010;2024-03-08T03:53:01;7.40;59.60
84902;DHT22;75166;51.198;6.010;2024-03-08T03:55:28;7.40;59.60
84902;DHT22;75166;51.198;6.010;2024-03-08T03:57:54;7.30;59.50
84902;DHT22;75166;51.198;6.010;2024-03-08T04:00:20;7.40;59.50
84902;DHT22;75166;51.198;6.010;2024-03-08T04:02:45;7.40;59.50
84902;DHT22;75166;51.198;6.010;2024-03-08T04:05:12;7.30;59.40
84902;DHT22;75166;51.198;6.010;2024-03-08T04:07:39;7.30;59.40
84902;DHT22;75166;51.198;6.010;2024-03-08T04:10:06;7.30;59.50
84902;DHT22;75166;51.198;6.010;2024-03-08T04:12:35;7.30;59.70
84902;DHT22;75166;51.198;6.010;2024-03-08T04:15:01;7.20;59.70
84902;DHT22;75166;51.198;6.010;2024-03-08T04:17:27;7.20;59.70
84902;DHT22;75166;51.198;6.010;2024-03-08T04:19:53;7.20;59.70
84902;DHT22;75166;51.198;6.010;2024-03-08T04:22:19;7.20;59.70
84902;DHT22;75166;51.198;6.010;2024-03-08T04:24:45;7.20;59.60
84902;DHT22;75166;51.198;6.010;2024-03-08T04:27:11;7.20;59.60
84902;DHT22;75166;51.198;6.010;2024-03-08T04:29:37;7.20;59.60
84902;DHT22;75166;51.198;6.010;2024-03-08T04:32:03;7.20;59.60
84902;DHT22;75166;51.198;6.010;2024-03-08T04:34:30;7.20;59.80
84902;DHT22;75166;51.198;6.010;2024-03-08T04:36:58;7.20;59.90
84902;DHT22;75166;51.198;6.010;2024-03-08T04:39:24;7.10;59.80
84902;DHT22;75166;51.198;6.010;2024-03-08T04:41:54;7.10;59.70
84902;DHT22;75166;51.198;6.010;2024-03-08T04:44:22;7.10;59.80
84902;DHT22;75166;51.198;6.010;2024-03-08T04:46:48;7.10;59.80
84902;DHT22;75166;51.198;6.010;2024-03-08T04:49:14;7.10;59.80
84902;DHT22;75166;51.198;6.010;2024-03-08T04:51:40;7.10;59.70
84902;DHT22;75166;51.198;6.010;2024-03-08T04:54:05;7.10;59.80
84902;DHT22;75166;51.198;6.010;2024-03-08T04:56:31;7.00;59.80
84902;DHT22;75166;51.198;6.010;2024-03-08T04:58:57;7.00;60.00
84902;DHT22;75166;51.198;6.010;2024-03-08T05:01:23;7.00;60.00
84902;DHT22;75166;51.198;6.010;2024-03-08T05:03:48;7.00;60.00
84902;DHT22;75166;51.198;6.010;2024-03-08T05:06:16;7.00;60.00
84902;DHT22;75166;51.198;6.010;2024-03-08T05:08:42;7.00;60.00
84902;DHT22;75166;51.198;6.010;2024-03-08T05:11:07;7.00;60.00
84902;DHT22;75166;51.198;6.010;2024-03-08T05:13:33;7.00;60.00
84902;DHT22;75166;51.198;6.010;2024-03-08T05:16:03;6.90;59.90
84902;DHT22;75166;51.198;6.010;2024-03-08T05:18:28;6.90;59.90
84902;DHT22;75166;51.198;6.010;2024-03-08T05:20:54;6.90;60.10
84902;DHT22;75166;51.198;6.010;2024-03-08T05:23:20;6.90;60.20
84902;DHT22;75166;51.198;6.010;2024-03-08T05:25:46;6.80;60.10
84902;DHT22;75166;51.198;6.010;2024-03-08T05:28:14;6.90;60.30
84902;DHT22;75166;51.198;6.010;2024-03-08T05:30:40;6.90;60.30
84902;DHT22;75166;51.198;6.010;2024-03-08T05:33:06;6.90;60.20
84902;DHT22;75166;51.198;6.010;2024-03-08T05:35:36;6.90;60.00
84902;DHT22;75166;51.198;6.010;2024-03-08T05:38:01;6.80;60.00
84902;DHT22;75166;51.198;6.010;2024-03-08T05:40:27;6.80;60.10
84902;DHT22;75166;51.198;6.010;2024-03-08T05:42:58;6.70;60.30
84902;DHT22;75166;51.198;6.010;2024-03-08T05:45:24;6.70;60.40
84902;DHT22;75166;51.198;6.010;2024-03-08T05:47:51;6.70;60.50
84902;DHT22;75166;51.198;6.010;2024-03-08T05:50:17;6.70;60.40
84902;DHT22;75166;51.198;6.010;2024-03-08T05:52:43;6.70;60.40
84902;DHT22;75166;51.198;6.010;2024-03-08T05:55:09;6.70;60.30
84902;DHT22;75166;51.198;6.010;2024-03-08T05:57:35;6.70;60.30
84902;DHT22;75166;51.198;6.010;2024-03-08T06:00:05;6.70;60.40
84902;DHT22;75166;51.198;6.010;2024-03-08T06:02:31;6.70;60.30
84902;DHT22;75166;51.198;6.010;2024-03-08T06:04:57;6.60;60.30
84902;DHT22;75166;51.198;6.010;2024-03-08T06:07:22;6.60;60.50
84902;DHT22;75166;51.198;6.010;2024-03-08T06:09:48;6.60;60.70
84902;DHT22;75166;51.198;6.010;2024-03-08T06:12:14;6.60;60.70
84902;DHT22;75166;51.198;6.010;2024-03-08T06:14:45;6.60;60.30
84902;DHT22;75166;51.198;6.010;2024-03-08T06:17:10;6.60;60.60
84902;DHT22;75166;51.198;6.010;2024-03-08T06:19:36;6.60;60.50
84902;DHT22;75166;51.198;6.010;2024-03-08T06:22:02;6.60;60.60
84902;DHT22;75166;51.198;6.010;2024-03-08T06:24:31;6.60;60.70
84902;DHT22;75166;51.198;6.010;2024-03-08T06:26:57;6.60;60.80
84902;DHT22;75166;51.198;6.010;2024-03-08T06:29:23;6.60;60.90
84902;DHT22;75166;51.198;6.010;2024-03-08T06:31:49;6.60;61.00
84902;DHT22;75166;51.198;6.010;2024-03-08T06:34:15;6.70;61.00
84902;DHT22;75166;51.198;6.010;2024-03-08T06:36:40;6.60;60.90
84902;DHT22;75166;51.198;6.010;2024-03-08T06:39:06;6.60;61.00
84902;DHT22;75166;51.198;6.010;2024-03-08T06:41:36;6.60;61.20
84902;DHT22;75166;51.198;6.010;2024-03-08T06:44:01;6.50;61.20
84902;DHT22;75166;51.198;6.010;2024-03-08T06:46:27;6.50;61.40
84902;DHT22;75166;51.198;6.010;2024-03-08T06:48:53;6.50;61.60
84902;DHT22;75166;51.198;6.010;2024-03-08T06:51:19;6.50;61.60
84902;DHT22;75166;51.198;6.010;2024-03-08T06:53:45;6.50;61.50
84902;DHT22;75166;51.198;6.010;2024-03-08T06:56:11;6.50;61.50
84902;DHT22;75166;51.198;6.010;2024-03-08T06:58:36;6.50;61.50
84902;DHT22;75166;51.198;6.010;2024-03-08T07:01:03;6.60;61.60
84902;DHT22;75166;51.198;6.010;2024-03-08T07:03:32;6.50;61.70
84902;DHT22;75166;51.198;6.010;2024-03-08T07:05:58;6.50;61.80
84902;DHT22;75166;51.198;6.010;2024-03-08T07:08:24;6.50;61.70
84902;DHT22;75166;51.198;6.010;2024-03-08T07:10:49;6.50;61.80
84902;DHT22;75166;51.198;6.010;2024-03-08T07:13:15;6.50;61.60
84902;DHT22;75166;51.198;6.010;2024-03-08T07:15:43;6.50;61.40
84902;DHT22;75166;51.198;6.010;2024-03-08T07:18:08;6.50;61.30
84902;DHT22;75166;51.198;6.010;2024-03-08T07:20:34;6.40;61.40
84902;DHT22;75166;51.198;6.010;2024-03-08T07:23:00;6.40;61.40
84902;DHT22;75166;51.198;6.010;2024-03-08T07:25:26;6.40;61.50
84902;DHT22;75166;51.198;6.010;2024-03-08T07:27:56;6.40;61.70
84902;DHT22;75166;51.198;6.010;2024-03-08T07:30:23;6.40;61.80
84902;DHT22;75166;51.198;6.010;2024-03-08T07:33:08;6.40;62.00
84902;DHT22;75166;51.198;6.010;2024-03-08T07:35:37;6.30;62.10
84902;DHT22;75166;51.198;6.010;2024-03-08T07:38:12;6.30;62.20
84902;DHT22;75166;51.198;6.010;2024-03-08T07:40:38;6.30;62.20
84902;DHT22;75166;51.198;6.010;2024-03-08T07:43:10;6.30;62.20
84902;DHT22;75166;51.198;6.010;2024-03-08T07:45:37;6.40;62.30
84902;DHT22;75166;51.198;6.010;2024-03-08T07:48:03;6.40;62.30
84902;DHT22;75166;51.198;6.010;2024-03-08T07:50:29;6.40;62.40
84902;DHT22;75166;51.198;6.010;2024-03-08T07:52:55;6.40;62.50
84902;DHT22;75166;51.198;6.010;2024-03-08T07:55:20;6.40;62.50
84902;DHT22;75166;51.198;6.010;2024-03-08T07:57:49;6.30;62.70
84902;DHT22;75166;51.198;6.010;2024-03-08T08:00:15;6.30;62.70
84902;DHT22;75166;51.198;6.010;2024-03-08T08:02:44;6.40;62.70
84902;DHT22;75166;51.198;6.010;2024-03-08T08:05:11;6.40;62.70
84902;DHT22;75166;51.198;6.010;2024-03-08T08:07:37;6.30;62.60
84902;DHT22;75166;51.198;6.010;2024-03-08T08:10:03;6.40;62.60
84902;DHT22;75166;51.198;6.010;2024-03-08T08:12:28;6.50;62.70
84902;DHT22;75166;51.198;6.010;2024-03-08T08:14:54;6.40;62.70
84902;DHT22;75166;51.198;6.010;2024-03-08T08:17:20;6.40;62.90
84902;DHT22;75166;51.198;6.010;2024-03-08T08:19:45;6.40;63.00
84902;DHT22;75166;51.198;6.010;2024-03-08T08:22:11;6.40;63.20
84902;DHT22;75166;51.198;6.010;2024-03-08T08:24:37;6.40;63.30
84902;DHT22;75166;51.198;6.010;2024-03-08T08:27:03;6.40;63.20
84902;DHT22;75166;51.198;6.010;2024-03-08T08:29:29;6.50;63.20
84902;DHT22;75166;51.198;6.010;2024-03-08T08:31:58;6.50;63.20
84902;DHT22;75166;51.198;6.010;2024-03-08T08:34:24;6.40;63.10
84902;DHT22;75166;51.198;6.010;2024-03-08T08:36:52;6.50;63.20
84902;DHT22;75166;51.198;6.010;2024-03-08T08:39:18;6.50;63.40
84902;DHT22;75166;51.198;6.010;2024-03-08T08:41:44;6.40;63.50
84902;DHT22;75166;51.198;6.010;2024-03-08T08:44:10;6.40;63.60
84902;DHT22;75166;51.198;6.010;2024-03-08T08:46:37;6.40;63.70
84902;DHT22;75166;51.198;6.010;2024-03-08T08:49:04;6.50;63.80
84902;DHT22;75166;51.198;6.010;2024-03-08T08:51:30;6.50;63.70
84902;DHT22;75166;51.198;6.010;2024-03-08T08:53:59;6.50;63.60
84902;DHT22;75166;51.198;6.010;2024-03-08T08:56:25;6.60;63.60
84902;DHT22;75166;51.198;6.010;2024-03-08T08:58:52;6.60;63.70
84902;DHT22;75166;51.198;6.010;2024-03-08T09:01:19;6.60;63.70
84902;DHT22;75166;51.198;6.010;2024-03-08T09:03:44;6.60;63.80
84902;DHT22;75166;51.198;6.010;2024-03-08T09:06:12;6.60;63.80
84902;DHT22;75166;51.198;6.010;2024-03-08T09:08:39;6.60;64.00
84902;DHT22;75166;51.198;6.010;2024-03-08T09:11:05;6.60;64.00
84902;DHT22;75166;51.198;6.010;2024-03-08T09:13:31;6.60;63.90
84902;DHT22;75166;51.198;6.010;2024-03-08T09:15:57;6.70;63.90
84902;DHT22;75166;51.198;6.010;2024-03-08T09:18:22;6.70;63.80
84902;DHT22;75166;51.198;6.010;2024-03-08T09:20:49;6.70;63.80
84902;DHT22;75166;51.198;6.010;2024-03-08T09:23:15;6.80;64.00
84902;DHT22;75166;51.198;6.010;2024-03-08T09:25:42;6.80;64.10
84902;DHT22;75166;51.198;6.010;2024-03-08T09:28:09;6.80;64.10
84902;DHT22;75166;51.198;6.010;2024-03-08T09:30:37;6.90;64.30
84902;DHT22;75166;51.198;6.010;2024-03-08T09:33:04;6.90;64.30
84902;DHT22;75166;51.198;6.010;2024-03-08T09:35:29;6.90;64.20
84902;DHT22;75166;51.198;6.010;2024-03-08T09:37:55;7.00;64.30
84902;DHT22;75166;51.198;6.010;2024-03-08T09:40:21;7.00;64.00
84902;DHT22;75166;51.198;6.010;2024-03-08T09:42:49;7.10;64.20
84902;DHT22;75166;51.198;6.010;2024-03-08T09:45:23;7.10;64.00
84902;DHT22;75166;51.198;6.010;2024-03-08T09:47:50;7.20;64.00
84902;DHT22;75166;51.198;6.010;2024-03-08T09:50:16;7.20;64.10
84902;DHT22;75166;51.198;6.010;2024-03-08T09:52:44;7.20;64.30
84902;DHT22;75166;51.198;6.010;2024-03-08T09:55:11;7.20;64.40
84902;DHT22;75166;51.198;6.010;2024-03-08T09:57:38;7.30;64.30
84902;DHT22;75166;51.198;6.010;2024-03-08T10:00:05;7.30;64.00
84902;DHT22;75166;51.198;6.010;2024-03-08T10:02:47;7.40;64.00
84902;DHT22;75166;51.198;6.010;2024-03-08T10:05:13;7.40;63.90
84902;DHT22;75166;51.198;6.010;2024-03-08T10:07:39;7.40;63.90
84902;DHT22;75166;51.198;6.010;2024-03-08T10:10:05;7.40;63.90
84902;DHT22;75166;51.198;6.010;2024-03-08T10:12:36;7.50;64.00
84902;DHT22;75166;51.198;6.010;2024-03-08T10:15:02;7.50;64.10
84902;DHT22;75166;51.198;6.010;2024-03-08T10:17:28;7.50;64.00
84902;DHT22;75166;51.198;6.010;2024-03-08T10:19:57;7.60;63.90
84902;DHT22;75166;51.198;6.010;2024-03-08T10:22:25;7.70;63.70
84902;DHT22;75166;51.198;6.010;2024-03-08T10:24:51;7.70;63.60
84902;DHT22;75166;51.198;6.010;2024-03-08T10:27:17;7.80;63.60
84902;DHT22;75166;51.198;6.010;2024-03-08T10:29:42;7.80;63.20
84902;DHT22;75166;51.198;6.010;2024-03-08T10:32:10;7.80;63.50
84902;DHT22;75166;51.198;6.010;2024-03-08T10:34:35;7.90;63.60
84902;DHT22;75166;51.198;6.010;2024-03-08T10:37:04;7.90;63.10
84902;DHT22;75166;51.198;6.010;2024-03-08T10:39:37;8.00;63.00
84902;DHT22;75166;51.198;6.010;2024-03-08T10:42:04;8.00;63.00
84902;DHT22;75166;51.198;6.010;2024-03-08T10:47:43;8.10;62.70
84902;DHT22;75166;51.198;6.010;2024-03-08T10:50:19;8.20;62.40
84902;DHT22;75166;51.198;6.010;2024-03-08T10:52:51;8.20;62.10
84902;DHT22;75166;51.198;6.010;2024-03-08T10:55:20;8.20;62.00
84902;DHT22;75166;51.198;6.010;2024-03-08T10:57:46;8.20;62.10
84902;DHT22;75166;51.198;6.010;2024-03-08T11:00:16;8.20;61.90
84902;DHT22;75166;51.198;6.010;2024-03-08T11:02:44;8.30;62.00
84902;DHT22;75166;51.198;6.010;2024-03-08T11:05:11;8.30;62.20
84902;DHT22;75166;51.198;6.010;2024-03-08T11:07:42;8.30;62.10
84902;DHT22;75166;51.198;6.010;2024-03-08T11:10:19;8.40;62.10
84902;DHT22;75166;51.198;6.010;2024-03-08T11:12:45;8.40;62.10
84902;DHT22;75166;51.198;6.010;2024-03-08T11:15:13;8.50;62.10
84902;DHT22;75166;51.198;6.010;2024-03-08T11:17:48;8.50;62.00
84902;DHT22;75166;51.198;6.010;2024-03-08T11:20:16;8.50;62.00
84902;DHT22;75166;51.198;6.010;2024-03-08T11:23:02;8.50;61.80
84902;DHT22;75166;51.198;6.010;2024-03-08T11:25:39;8.50;61.80
84902;DHT22;75166;51.198;6.010;2024-03-08T11:28:19;8.60;62.10
84902;DHT22;75166;51.198;6.010;2024-03-08T11:31:29;8.60;61.90
84902;DHT22;75166;51.198;6.010;2024-03-08T11:33:31;8.60;61.70
84902;DHT22;75166;51.198;6.010;2024-03-08T11:36:07;8.70;61.80
84902;DHT22;75166;51.198;6.010;2024-03-08T11:38:43;8.70;61.70
84902;DHT22;75166;51.198;6.010;2024-03-08T11:41:17;8.80;61.70
84902;DHT22;75166;51.198;6.010;2024-03-08T11:43:43;8.80;61.80
84902;DHT22;75166;51.198;6.010;2024-03-08T11:46:10;8.80;61.80
84902;DHT22;75166;51.198;6.010;2024-03-08T11:48:39;8.90;61.80
84902;DHT22;75166;51.198;6.010;2024-03-08T11:51:08;8.90;61.60
84902;DHT22;75166;51.198;6.010;2024-03-08T11:53:33;8.90;61.60
84902;DHT22;75166;51.198;6.010;2024-03-08T11:56:11;9.00;61.10
84902;DHT22;75166;51.198;6.010;2024-03-08T11:58:37;9.10;61.20
84902;DHT22;75166;51.198;6.010;2024-03-08T12:01:07;9.10;60.90
84902;DHT22;75166;51.198;6.010;2024-03-08T12:03:39;9.10;60.90
84902;DHT22;75166;51.198;6.010;2024-03-08T12:06:05;9.20;61.00
84902;DHT22;75166;51.198;6.010;2024-03-08T12:08:31;9.20;60.80
84902;DHT22;75166;51.198;6.010;2024-03-08T12:10:57;9.20;60.70
84902;DHT22;75166;51.198;6.010;2024-03-08T12:13:33;9.30;60.90
84902;DHT22;75166;51.198;6.010;2024-03-08T12:16:03;9.30;60.70
84902;DHT22;75166;51.198;6.010;2024-03-08T12:18:34;9.40;60.70
84902;DHT22;75166;51.198;6.010;2024-03-08T12:21:12;9.50;60.40
84902;DHT22;75166;51.198;6.010;2024-03-08T12:23:46;9.50;60.10
84902;DHT22;75166;51.198;6.010;2024-03-08T12:26:17;9.60;60.00
84902;DHT22;75166;51.198;6.010;2024-03-08T12:28:45;9.60;59.30
84902;DHT22;75166;51.198;6.010;2024-03-08T12:31:17;9.80;59.30
84902;DHT22;75166;51.198;6.010;2024-03-08T12:33:55;9.80;59.10
84902;DHT22;75166;51.198;6.010;2024-03-08T12:36:25;9.90;59.10
84902;DHT22;75166;51.198;6.010;2024-03-08T12:38:51;10.00;58.90
84902;DHT22;75166;51.198;6.010;2024-03-08T12:41:20;10.10;58.90
84902;DHT22;75166;51.198;6.010;2024-03-08T12:43:46;10.20;58.60
84902;DHT22;75166;51.198;6.010;2024-03-08T12:46:18;10.20;58.50
84902;DHT22;75166;51.198;6.010;2024-03-08T12:48:48;10.20;58.50
84902;DHT22;75166;51.198;6.010;2024-03-08T12:51:14;10.20;57.90
84902;DHT22;75166;51.198;6.010;2024-03-08T12:53:44;10.30;58.20
84902;DHT22;75166;51.198;6.010;2024-03-08T12:56:11;10.30;58.20
84902;DHT22;75166;51.198;6.010;2024-03-08T12:58:37;10.40;58.10
84902;DHT22;75166;51.198;6.010;2024-03-08T13:01:04;10.50;57.50
84902;DHT22;75166;51.198;6.010;2024-03-08T13:03:36;10.60;57.90
84902;DHT22;75166;51.198;6.010;2024-03-08T13:06:05;10.60;57.30
84902;DHT22;75166;51.198;6.010;2024-03-08T13:08:35;10.70;57.30
84902;DHT22;75166;51.198;6.010;2024-03-08T13:11:05;10.70;57.20
84902;DHT22;75166;51.198;6.010;2024-03-08T13:13:30;10.80;57.20
84902;DHT22;75166;51.198;6.010;2024-03-08T13:15:56;10.80;57.00
84902;DHT22;75166;51.198;6.010;2024-03-08T13:18:22;10.80;57.00
84902;DHT22;75166;51.198;6.010;2024-03-08T13:20:48;10.90;56.90
84902;DHT22;75166;51.198;6.010;2024-03-08T13:23:17;10.90;56.30
84902;DHT22;75166;51.198;6.010;2024-03-08T13:25:43;11.00;56.40
84902;DHT22;75166;51.198;6.010;2024-03-08T13:28:09;11.00;56.50
84902;DHT22;75166;51.198;6.010;2024-03-08T13:30:36;11.10;56.60
84902;DHT22;75166;51.198;6.010;2024-03-08T13:33:02;11.10;56.20
84902;DHT22;75166;51.198;6.010;2024-03-08T13:35:33;11.10;56.10
84902;DHT22;75166;51.198;6.010;2024-03-08T13:38:00;11.10;54.60
84902;DHT22;75166;51.198;6.010;2024-03-08T13:40:28;11.10;55.30
84902;DHT22;75166;51.198;6.010;2024-03-08T13:42:54;11.10;56.00
84902;DHT22;75166;51.198;6.010;2024-03-08T13:45:20;11.20;54.70
84902;DHT22;75166;51.198;6.010;2024-03-08T13:47:50;11.30;55.40
84902;DHT22;75166;51.198;6.010;2024-03-08T13:50:17;11.20;55.30
84902;DHT22;75166;51.198;6.010;2024-03-08T13:52:48;11.30;54.80
84902;DHT22;75166;51.198;6.010;2024-03-08T13:55:17;11.30;55.10
84902;DHT22;75166;51.198;6.010;2024-03-08T13:57:43;11.40;55.30
84902;DHT22;75166;51.198;6.010;2024-03-08T14:00:11;11.40;55.20
84902;DHT22;75166;51.198;6.010;2024-03-08T14:02:38;11.50;55.30
84902;DHT22;75166;51.198;6.010;2024-03-08T14:05:09;11.50;55.60
84902;DHT22;75166;51.198;6.010;2024-03-08T14:07:36;11.50;55.40
84902;DHT22;75166;51.198;6.010;2024-03-08T14:10:02;11.60;56.00
84902;DHT22;75166;51.198;6.010;2024-03-08T14:12:28;11.60;56.20
84902;DHT22;75166;51.198;6.010;2024-03-08T14:14:55;11.60;56.10
84902;DHT22;75166;51.198;6.010;2024-03-08T14:17:25;11.60;56.20
84902;DHT22;75166;51.198;6.010;2024-03-08T14:19:53;11.70;56.10
84902;DHT22;75166;51.198;6.010;2024-03-08T14:22:18;11.70;55.90
84902;DHT22;75166;51.198;6.010;2024-03-08T14:24:45;11.80;55.80
84902;DHT22;75166;51.198;6.010;2024-03-08T14:27:11;11.80;55.80
84902;DHT22;75166;51.198;6.010;2024-03-08T14:29:37;11.80;55.80
84902;DHT22;75166;51.198;6.010;2024-03-08T14:32:07;11.90;55.40
84902;DHT22;75166;51.198;6.010;2024-03-08T14:34:33;12.00;55.80
84902;DHT22;75166;51.198;6.010;2024-03-08T14:36:59;12.00;56.00
84902;DHT22;75166;51.198;6.010;2024-03-08T14:39:26;12.10;56.10
84902;DHT22;75166;51.198;6.010;2024-03-08T14:41:55;12.10;55.40
84902;DHT22;75166;51.198;6.010;2024-03-08T14:44:24;12.10;55.40
84902;DHT22;75166;51.198;6.010;2024-03-08T14:46:55;12.10;55.00
84902;DHT22;75166;51.198;6.010;2024-03-08T14:49:22;12.20;55.30
84902;DHT22;75166;51.198;6.010;2024-03-08T14:51:48;12.20;55.50
84902;DHT22;75166;51.198;6.010;2024-03-08T14:54:13;12.20;55.60
84902;DHT22;75166;51.198;6.010;2024-03-08T14:56:39;12.30;55.90
84902;DHT22;75166;51.198;6.010;2024-03-08T14:59:08;12.30;55.90
84902;DHT22;75166;51.198;6.010;2024-03-08T15:01:35;12.30;55.80
84902;DHT22;75166;51.198;6.010;2024-03-08T15:04:02;12.50;55.50
84902;DHT22;75166;51.198;6.010;2024-03-08T15:06:37;12.30;55.10
84902;DHT22;75166;51.198;6.010;2024-03-08T15:09:04;12.40;55.10
84902;DHT22;75166;51.198;6.010;2024-03-08T15:11:40;12.40;55.10
84902;DHT22;75166;51.198;6.010;2024-03-08T15:14:08;12.40;55.30
84902;DHT22;75166;51.198;6.010;2024-03-08T15:16:40;12.40;55.60
84902;DHT22;75166;51.198;6.010;2024-03-08T15:19:07;12.40;55.90
84902;DHT22;75166;51.198;6.010;2024-03-08T15:21:33;12.40;51.50
84902;DHT22;75166;51.198;6.010;2024-03-08T15:24:00;12.50;51.70
84902;DHT22;75166;51.198;6.010;2024-03-08T15:26:30;12.50;52.00
84902;DHT22;75166;51.198;6.010;2024-03-08T15:28:57;12.50;51.80
84902;DHT22;75166;51.198;6.010;2024-03-08T15:31:23;12.50;52.00
84902;DHT22;75166;51.198;6.010;2024-03-08T15:33:52;12.50;52.70
84902;DHT22;75166;51.198;6.010;2024-03-08T15:36:28;12.60;53.70
84902;DHT22;75166;51.198;6.010;2024-03-08T15:38:57;12.60;53.90
84902;DHT22;75166;51.198;6.010;2024-03-08T15:41:22;12.60;54.10
84902;DHT22;75166;51.198;6.010;2024-03-08T15:43:48;12.60;53.80
84902;DHT22;75166;51.198;6.010;2024-03-08T15:46:15;12.60;53.30
84902;DHT22;75166;51.198;6.010;2024-03-08T15:48:41;12.60;53.30